Flight Track Log - Related Links

Times and Time Zones

All times are in EDT time to prevent confusion due to time zone crossing. See the AAL2273 flight status page for this flight to view local times or setup timezone preferences in your user account.

Time Position Orientation Groundspeed Altitude Reporting Facility
EDT Latitude Longitude Course Direction KTS MPH feet Rate Location/Type
Mon 05:08:01 PM 30.0072 -90.2456 324° Northwest 155 178 700  Level Houston Center
Mon 05:08:56 PM 30.0528 -90.2317 15° North 204 235 2,200 1,934 Climbing Houston Center
Mon 05:10:00 PM 30.1873 -90.4398 316° Northwest  Level FlightAware Approximate
Mon 05:10:02 PM 30.1158 -90.2103 16° North 232 267 4,600  Level Houston Center
Mon 05:11:00 PM 30.2501 -90.5104 316° Northwest  Level FlightAware Approximate
Mon 05:11:04 PM 30.1886 -90.1964 North 255 293 7,700  Level Houston Center
Mon 05:12:00 PM 30.3145 -90.5787 324° Northwest  Level FlightAware Approximate
Mon 05:12:06 PM 30.2436 -90.2767 308° West 266 306 10,700  Level Houston Center
Mon 05:13:00 PM 30.3855 -90.6379 324° Northwest  Level FlightAware Approximate
Mon 05:13:08 PM 30.2994 -90.3589 308° West 318 366 12,800  Level Houston Center
Mon 05:14:10 PM 30.3647 -90.4431 312° West 344 396 15,700 2,565 Climbing Houston Center
Mon 05:15:12 PM 30.4317 -90.5289 312° West 357 411 18,100 2,274 Climbing Houston Center
Mon 05:16:14 PM 30.5008 -90.6131 314° West 360 414 20,400 2,032 Climbing Houston Center
Mon 05:17:16 PM 30.5703 -90.7028 312° West 371 427 22,300 1,344 Climbing Houston Center
Mon 05:18:19 PM 30.6564 -90.8103 313° West 378 435 23,200 1,200 Climbing Houston Center
Mon 05:19:21 PM 30.6947 -90.9233 292° West 374 430 24,800 1,548 Climbing Houston Center
Mon 05:20:23 PM 30.7350 -91.0350 293° West 375 432 26,400 1,548 Climbing Houston Center
Mon 05:21:25 PM 30.7817 -91.1631 293° West 389 448 28,000 1,694 Climbing Houston Center
Mon 05:22:27 PM 30.8231 -91.2781 293° West 388 447 29,900 1,597 Climbing Houston Center
Mon 05:23:29 PM 30.8639 -91.3922 293° West 384 442 31,300 1,306 Climbing Houston Center
Mon 05:24:31 PM 30.9050 -91.5039 293° West 377 434 32,600 1,210 Climbing Houston Center
Mon 05:25:33 PM 30.9436 -91.6133 292° West 368 423 33,800 677 Climbing Houston Center
Mon 05:26:35 PM 30.9825 -91.7228 293° West 366 421 34,000 97 Climbing Houston Center
Mon 05:27:37 PM 31.0300 -91.8569 292° West 373 429 34,000  Level Houston Center
Mon 05:28:39 PM 31.0686 -91.9672 292° West 370 426 34,000  Level Houston Center
Mon 05:29:42 PM 31.1067 -92.0728 293° West 370 426 34,000  Level Houston Center
Mon 05:30:44 PM 31.1444 -92.1839 292° West 369 425 34,000  Level Houston Center
Mon 05:31:46 PM 31.1839 -92.2950 293° West 371 427 34,000  Level Houston Center
Mon 05:32:48 PM 31.2303 -92.4283 292° West 371 427 34,000  Level Houston Center
Mon 05:33:50 PM 31.2700 -92.5403 293° West 373 429 34,000  Level Houston Center
Mon 05:34:52 PM 31.3133 -92.6497 295° West 374 430 34,000 -48 Level Houston Center
Mon 05:35:54 PM 31.3547 -92.7617 293° West 376 433 33,900  Descending Houston Center
Mon 05:36:56 PM 31.3961 -92.8714 294° West 373 429 34,000 48 Climbing Houston Center
Mon 05:37:58 PM 31.4464 -93.0039 294° West 373 429 34,000  Level Houston Center
Mon 05:39:01 PM 31.4869 -93.1136 293° West 371 427 34,000  Level Houston Center
Mon 05:40:03 PM 31.5289 -93.2244 294° West 372 428 34,000  Level Houston Center
Mon 05:41:05 PM 31.5686 -93.3319 293° West 373 429 34,000  Level Houston Center
Mon 05:42:07 PM 31.6181 -93.4644 294° West 371 427 34,000  Level Houston Center
Mon 05:43:03 PM 31.6536 -93.5625 293° West 372 428 34,000  Level Fort Worth Center
Mon 05:44:04 PM 31.6944 -93.6731 293° West 372 428 34,000  Level Fort Worth Center
Mon 05:45:03 PM 31.7353 -93.7861 293° West 372 428 34,000  Level Fort Worth Center
Mon 05:46:03 PM 31.7617 -93.9025 285° West 372 428 34,000  Level Fort Worth Center
Mon 05:47:03 PM 31.7897 -94.0186 286° West 367 422 34,000  Level Fort Worth Center
Mon 05:48:03 PM 31.8117 -94.1375 282° West 367 422 34,000  Level Fort Worth Center
Mon 05:49:03 PM 31.8356 -94.2542 284° West 372 428 34,000  Level Fort Worth Center
Mon 05:50:04 PM 31.8594 -94.3756 283° West 372 428 34,000  Level Fort Worth Center
Mon 05:51:03 PM 31.8811 -94.4922 282° West 372 428 34,000  Level Fort Worth Center
Mon 05:52:03 PM 31.9047 -94.6139 283° West 372 428 34,000  Level Fort Worth Center
Mon 05:53:03 PM 31.9281 -94.7331 283° West 372 428 34,000  Level Fort Worth Center
Mon 05:54:04 PM 31.9494 -94.8525 282° West 372 428 34,000  Level Fort Worth Center
Mon 05:55:03 PM 31.9789 -94.9717 286° West 372 428 34,000  Level Fort Worth Center
Mon 05:56:03 PM 32.0125 -95.0883 289° West 372 428 34,000  Level Fort Worth Center
Mon 05:57:03 PM 32.0458 -95.2025 289° West 377 434 34,000 -150 Level Fort Worth Center
Mon 05:58:03 PM 32.0750 -95.3197 286° West 377 434 33,700 -1,150 Descending Fort Worth Center
Mon 05:59:03 PM 32.1061 -95.4392 287° West 377 434 31,700 -2,000 Descending Fort Worth Center
Mon 06:00:03 PM 32.1433 -95.5561 291° West 377 434 29,700 -2,000 Descending Fort Worth Center
Mon 06:01:03 PM 32.1764 -95.6806 287° West 382 440 27,700 -1,983 Descending Fort Worth Center
Mon 06:02:04 PM 32.2094 -95.8075 287° West 399 459 25,700 -2,000 Descending Fort Worth Center
Mon 06:03:03 PM 32.2467 -95.9419 288° West 399 459 23,700 -2,067 Descending Fort Worth Center
Mon 06:04:03 PM 32.2792 -96.0644 287° West 393 452 21,600 -1,983 Descending Fort Worth Center
Mon 06:05:04 PM 32.3075 -96.1744 287° West 393 452 19,700 -1,950 Descending Fort Worth Center
Mon 06:06:03 PM 32.3419 -96.3019 288° West 380 437 17,700 -1,765 Descending Fort Worth Center
Mon 06:07:03 PM 32.3700 -96.4050 288° West 375 432 16,200 -1,550 Descending Fort Worth Center
Mon 06:08:03 PM 32.4336 -96.5100 306° West 361 415 14,600 -2,000 Descending Fort Worth Center
Mon 06:09:03 PM 32.4967 -96.5883 314° West 358 412 12,200 -1,800 Descending Fort Worth Center
Mon 06:10:03 PM 32.5786 -96.6836 316° Northwest 368 423 11,000 -600 Descending Fort Worth Center
Mon 06:11:03 PM 32.6417 -96.7622 314° West 368 423 11,000 -50 Level Fort Worth Center
Mon 06:12:03 PM 32.7131 -96.8456 316° Northwest 351 404 10,900  Descending Fort Worth Center
Mon 06:13:06 PM 32.7667 -96.9000 320° Northwest 244 281 11,000 -439 Climbing Dallas / Fort Worth TRACON
Mon 06:14:06 PM 32.8333 -96.9000 360° North 243 280 10,000 -1,667 Descending Dallas / Fort Worth TRACON
Mon 06:15:12 PM 32.9167 -96.9000 360° North 248 285 7,500 -2,100 Descending Dallas / Fort Worth TRACON
Mon 06:16:06 PM 32.9667 -96.9000 360° North 237 273 5,800 -1,878 Descending Dallas / Fort Worth TRACON
Mon 06:17:07 PM 33.0333 -96.9167 348° North 235 270 3,900 -1,869 Descending Dallas / Fort Worth TRACON

Login

Don't have an account? Register now (free) for customized features, flight alerts, and more!